Time;durP1;ratioP1;P1;durP2;ratioP2;P2;SDS_P1;SDS_P2;PMS_P1;PMS_P2;Temp;Humidity;BMP_temperature;BMP_pressure;BME280_temperature;BME280_humidity;BME280_pressure;Samples;Min_cycle;Max_cycle;Signal;HPM_P1;HPM_P2
2022/07/14 00:00:22;;;;;;;9.88;3.08;;;16.00;99.90;;;;;;5039626;28;20221;-78
2022/07/14 00:02:49;;;;;;;16.77;3.05;;;16.00;99.90;;;;;;5029728;28;20259;-81
2022/07/14 00:05:17;;;;;;;12.07;2.58;;;16.00;99.90;;;;;;5033773;28;20225;-80
2022/07/14 00:07:44;;;;;;;10.65;3.15;;;16.00;99.90;;;;;;5040255;28;20399;-80
2022/07/14 00:10:11;;;;;;;8.25;2.30;;;16.00;99.90;;;;;;5031315;28;21109;-83
2022/07/14 00:12:38;;;;;;;12.02;4.15;;;16.00;99.90;;;;;;5039781;28;20208;-80
2022/07/14 00:15:06;;;;;;;7.20;2.20;;;16.00;99.90;;;;;;5032100;28;20254;-82
2022/07/14 00:17:33;;;;;;;9.27;3.90;;;16.10;99.90;;;;;;5027536;28;20265;-82
2022/07/14 00:20:00;;;;;;;8.48;2.55;;;16.10;99.90;;;;;;5032786;28;20309;-80
2022/07/14 00:22:28;;;;;;;13.95;2.78;;;16.10;99.90;;;;;;5032099;28;20316;-80
2022/07/14 00:24:55;;;;;;;7.35;2.35;;;16.10;99.90;;;;;;5039827;28;20311;-81
2022/07/14 00:27:22;;;;;;;17.55;3.40;;;16.10;99.90;;;;;;5041325;28;20292;-80
2022/07/14 00:29:49;;;;;;;8.25;3.35;;;16.00;99.90;;;;;;5033789;28;20209;-82
2022/07/14 00:32:16;;;;;;;8.55;2.90;;;16.00;99.90;;;;;;5028045;28;20268;-81
2022/07/14 00:34:42;;;;;;;14.80;3.10;;;16.10;99.90;;;;;;5030592;28;20710;-81
2022/07/14 00:37:09;;;;;;;10.02;3.50;;;16.10;99.90;;;;;;5040835;28;20260;-81
2022/07/14 00:42:33;;;;;;;6.15;3.35;;;16.00;99.90;;;;;;5027968;28;20231;-81
2022/07/14 00:45:01;;;;;;;15.60;4.32;;;15.90;99.90;;;;;;5037956;28;20220;-82
2022/07/14 00:47:27;;;;;;;8.00;2.30;;;15.90;99.90;;;;;;5035242;28;20214;-82
2022/07/14 00:49:55;;;;;;;9.68;2.40;;;15.90;99.90;;;;;;5034602;28;20294;-82
2022/07/14 00:52:23;;;;;;;10.00;4.20;;;15.90;99.90;;;;;;5028744;28;20201;-82
2022/07/14 00:54:51;;;;;;;13.38;3.78;;;15.90;99.90;;;;;;5032269;28;20324;-82
2022/07/14 00:57:19;;;;;;;12.73;3.13;;;15.90;99.90;;;;;;5034352;28;20212;-82
2022/07/14 00:59:47;;;;;;;7.15;2.50;;;15.80;99.90;;;;;;5030647;28;20208;-80
2022/07/14 01:02:14;;;;;;;9.00;2.55;;;15.70;99.90;;;;;;5044195;28;20204;-80
2022/07/14 01:04:41;;;;;;;11.45;3.38;;;15.70;99.90;;;;;;5031492;28;20285;-80
2022/07/14 01:07:08;;;;;;;9.73;2.83;;;15.70;99.90;;;;;;5042864;28;20231;-78
2022/07/14 01:09:34;;;;;;;10.82;3.10;;;15.60;99.90;;;;;;5037437;28;20201;-79
2022/07/14 01:12:03;;;;;;;11.55;3.85;;;15.50;99.90;;;;;;5042482;28;20197;-79
2022/07/14 01:14:30;;;;;;;10.80;3.70;;;15.50;99.90;;;;;;5036818;28;20315;-81
2022/07/14 01:16:58;;;;;;;9.65;3.33;;;15.50;99.90;;;;;;5038970;28;20276;-79
2022/07/14 01:19:25;;;;;;;9.80;3.05;;;15.40;99.90;;;;;;5039903;28;20240;-79
2022/07/14 01:21:54;;;;;;;10.82;3.53;;;15.40;99.90;;;;;;5036797;28;20197;-78
2022/07/14 01:24:22;;;;;;;8.75;3.90;;;15.40;99.90;;;;;;5042782;28;20228;-79
2022/07/14 01:26:49;;;;;;;11.15;2.95;;;15.40;99.90;;;;;;5047153;28;20197;-79
2022/07/14 01:29:16;;;;;;;12.85;3.22;;;15.40;99.90;;;;;;5039819;28;20292;-80
2022/07/14 01:31:43;;;;;;;9.63;4.07;;;15.30;99.90;;;;;;5033986;28;20300;-79
2022/07/14 01:34:10;;;;;;;10.55;4.00;;;15.30;99.90;;;;;;5035143;28;20256;-81
2022/07/14 01:36:38;;;;;;;7.85;4.00;;;15.20;99.90;;;;;;5034307;28;20232;-83
2022/07/14 01:39:07;;;;;;;11.52;4.63;;;15.20;99.90;;;;;;5033055;28;20572;-82
2022/07/14 01:41:34;;;;;;;12.10;3.30;;;15.10;99.90;;;;;;5040428;28;20221;-83
2022/07/14 01:44:02;;;;;;;10.65;3.00;;;15.00;99.90;;;;;;5031067;28;20252;-82
2022/07/14 01:46:28;;;;;;;15.57;3.83;;;14.90;99.90;;;;;;5031492;28;20232;-83
2022/07/14 01:48:55;;;;;;;13.80;5.63;;;14.90;99.90;;;;;;5039208;28;20268;-81
2022/07/14 01:51:22;;;;;;;7.32;3.53;;;14.80;99.90;;;;;;5033195;28;20677;-81
2022/07/14 01:53:50;;;;;;;12.10;4.00;;;14.70;99.90;;;;;;5031728;28;20303;-82
2022/07/14 01:56:18;;;;;;;11.55;5.05;;;14.70;99.90;;;;;;5032128;28;20310;-82
2022/07/14 01:58:45;;;;;;;7.60;4.47;;;14.70;99.90;;;;;;5034222;28;20729;-80
2022/07/14 02:03:59;;;;;;;13.73;4.70;;;14.60;99.90;;;;;;5030063;28;20255;-81
2022/07/14 02:06:26;;;;;;;10.65;3.60;;;14.60;99.90;;;;;;5036200;28;20216;-81
2022/07/14 02:08:53;;;;;;;9.57;5.35;;;14.60;99.90;;;;;;5040437;28;20280;-82
2022/07/14 02:14:05;;;;;;;10.02;4.80;;;14.50;99.90;;;;;;5026132;28;20256;-81
2022/07/14 02:16:32;;;;;;;14.70;4.40;;;14.30;99.90;;;;;;5023728;28;20227;-82
2022/07/14 02:19:00;;;;;;;16.98;3.45;;;14.50;99.90;;;;;;5029119;28;20644;-82
2022/07/14 02:21:27;;;;;;;12.27;3.33;;;14.50;99.90;;;;;;5025680;28;20216;-83
2022/07/14 02:23:54;;;;;;;11.20;3.17;;;14.50;99.90;;;;;;5034484;28;20295;-83
2022/07/14 02:26:23;;;;;;;10.90;4.72;;;14.50;99.90;;;;;;5043324;28;20204;-83
2022/07/14 02:28:50;;;;;;;8.32;3.25;;;14.60;99.90;;;;;;5031234;28;20204;-79
2022/07/14 02:31:17;;;;;;;13.15;4.10;;;14.50;99.90;;;;;;5025241;28;20213;-81
2022/07/14 02:33:45;;;;;;;45.58;7.13;;;14.50;99.90;;;;;;5023746;28;20319;-82
2022/07/14 02:36:12;;;;;;;11.25;3.92;;;14.50;99.90;;;;;;5025276;28;20769;-80
2022/07/14 02:38:39;;;;;;;15.95;4.97;;;14.70;99.90;;;;;;5024286;28;20239;-83
2022/07/14 02:41:06;;;;;;;14.10;4.22;;;14.50;99.90;;;;;;5034773;28;20269;-82
2022/07/14 02:43:35;;;;;;;10.20;3.97;;;14.50;99.90;;;;;;5022554;28;20280;-82
2022/07/14 02:46:03;;;;;;;13.45;4.95;;;14.40;99.90;;;;;;5023028;28;20205;-80
2022/07/14 02:48:30;;;;;;;7.38;3.60;;;14.40;99.90;;;;;;5038052;28;20267;-83
2022/07/14 02:51:03;;;;;;;14.00;4.65;;;14.30;99.90;;;;;;5034055;28;20294;-82
2022/07/14 02:53:31;;;;;;;10.82;3.40;;;14.40;99.90;;;;;;5024417;28;20246;-80
2022/07/14 02:55:58;;;;;;;8.65;2.85;;;14.30;99.90;;;;;;5022620;28;20216;-83
2022/07/14 02:58:25;;;;;;;10.13;3.50;;;14.30;99.90;;;;;;5023310;28;20213;-81
2022/07/14 03:00:54;;;;;;;18.63;4.60;;;14.30;99.90;;;;;;5024956;28;20586;-82
2022/07/14 03:03:21;;;;;;;23.30;5.05;;;14.30;99.90;;;;;;5028623;28;20354;-81
2022/07/14 03:05:48;;;;;;;11.32;3.13;;;14.20;99.90;;;;;;5032413;28;20701;-80
2022/07/14 03:08:15;;;;;;;12.38;2.88;;;14.20;99.90;;;;;;5033032;28;20267;-81
2022/07/14 03:10:42;;;;;;;7.45;2.80;;;14.20;99.90;;;;;;5029854;28;20268;-79
2022/07/14 03:13:10;;;;;;;8.00;2.97;;;14.10;99.90;;;;;;5040285;28;20250;-78
2022/07/14 03:15:37;;;;;;;10.15;3.58;;;14.10;99.90;;;;;;5036310;28;20223;-80
2022/07/14 03:18:06;;;;;;;7.53;4.07;;;14.30;99.90;;;;;;5041517;28;20272;-80
2022/07/14 03:20:33;;;;;;;8.55;4.10;;;14.20;99.90;;;;;;5044490;28;20271;-79
2022/07/14 03:22:59;;;;;;;11.93;3.00;;;14.20;99.90;;;;;;5043525;28;20268;-77
2022/07/14 03:25:26;;;;;;;12.18;3.80;;;14.20;99.90;;;;;;5046539;28;20231;-78
2022/07/14 03:27:54;;;;;;;8.02;3.50;;;14.20;99.90;;;;;;5042824;28;20246;-78
2022/07/14 03:30:21;;;;;;;12.05;3.72;;;14.30;99.90;;;;;;5041199;28;20266;-81
2022/07/14 03:32:48;;;;;;;8.73;3.70;;;14.10;99.90;;;;;;5028538;28;20220;-81
2022/07/14 03:35:16;;;;;;;10.70;3.72;;;14.20;99.90;;;;;;5032229;28;20239;-82
2022/07/14 03:37:43;;;;;;;7.75;3.75;;;14.20;99.90;;;;;;5036387;28;20230;-81
2022/07/14 03:40:12;;;;;;;6.18;2.83;;;14.30;99.90;;;;;;5028224;28;20212;-82
2022/07/14 03:42:39;;;;;;;9.95;2.83;;;14.30;99.90;;;;;;5031024;28;20204;-83
2022/07/14 03:45:06;;;;;;;12.40;4.10;;;14.30;99.90;;;;;;5034424;28;20239;-79
2022/07/14 03:47:33;;;;;;;10.63;3.25;;;14.30;99.90;;;;;;5035596;28;20259;-79
2022/07/14 03:50:00;;;;;;;8.32;2.53;;;14.30;99.90;;;;;;5033246;28;20272;-80
2022/07/14 03:52:29;;;;;;;9.90;3.95;;;14.40;99.90;;;;;;5034381;28;20223;-82
2022/07/14 03:54:56;;;;;;;10.90;4.25;;;14.50;99.90;;;;;;5039675;28;20255;-81
2022/07/14 03:57:23;;;;;;;11.88;4.43;;;14.50;99.90;;;;;;5034149;28;20238;-82
2022/07/14 03:59:50;;;;;;;8.27;3.20;;;14.60;99.90;;;;;;5033057;28;20204;-80
2022/07/14 04:02:17;;;;;;;12.80;2.90;;;14.70;99.90;;;;;;5044926;28;20227;-81
2022/07/14 04:04:44;;;;;;;11.80;3.88;;;14.80;99.90;;;;;;5040176;28;20264;-80
2022/07/14 04:07:11;;;;;;;10.52;3.33;;;14.80;99.90;;;;;;5037756;28;20268;-80
2022/07/14 04:09:39;;;;;;;13.25;3.22;;;14.90;99.90;;;;;;5027193;28;20232;-80
2022/07/14 04:12:07;;;;;;;8.00;3.10;;;14.90;99.90;;;;;;5027165;28;20260;-81
2022/07/14 04:14:34;;;;;;;10.45;2.95;;;14.90;99.90;;;;;;5030383;28;20228;-81
2022/07/14 04:17:00;;;;;;;9.63;2.80;;;14.80;99.90;;;;;;5039133;28;20289;-80
2022/07/14 04:19:27;;;;;;;12.10;4.18;;;14.90;99.90;;;;;;5030842;28;20299;-79
2022/07/14 04:21:54;;;;;;;15.27;3.28;;;14.90;99.90;;;;;;5043750;28;20228;-82
2022/07/14 04:24:21;;;;;;;7.07;2.97;;;15.00;99.90;;;;;;5034289;28;20248;-82
2022/07/14 04:26:49;;;;;;;10.43;2.50;;;15.10;99.90;;;;;;5043796;28;20269;-81
2022/07/14 04:29:16;;;;;;;10.40;2.90;;;15.10;99.90;;;;;;5043521;28;20214;-82
2022/07/14 04:31:43;;;;;;;6.55;3.15;;;15.20;99.90;;;;;;5039982;28;20224;-81
2022/07/14 04:34:10;;;;;;;8.50;2.70;;;15.10;99.90;;;;;;5028073;28;20308;-81
2022/07/14 04:36:37;;;;;;;7.53;2.50;;;15.30;99.90;;;;;;5035339;28;20220;-83
2022/07/14 04:39:06;;;;;;;10.65;2.85;;;15.40;99.90;;;;;;5037018;28;20250;-81
2022/07/14 04:41:35;;;;;;;4.72;2.80;;;15.50;99.90;;;;;;5029508;28;20205;-81
2022/07/14 04:44:03;;;;;;;8.35;3.03;;;15.60;99.90;;;;;;5030424;28;20225;-80
2022/07/14 04:46:30;;;;;;;11.05;2.83;;;15.70;99.90;;;;;;5034014;28;20199;-83
2022/07/14 04:54:26;;;;;;;8.45;2.50;;;16.20;99.90;;;;;;5039501;28;20257;-78
2022/07/14 04:56:53;;;;;;;6.82;2.72;;;16.40;99.90;;;;;;5034479;28;20305;-81
2022/07/14 04:59:21;;;;;;;5.30;2.40;;;16.60;99.90;;;;;;5031835;28;20204;-81
2022/07/14 05:01:48;;;;;;;8.00;3.13;;;16.60;99.90;;;;;;5024221;28;20536;-81
2022/07/14 05:04:15;;;;;;;15.33;3.20;;;16.70;99.90;;;;;;5039604;28;20541;-81
2022/07/14 05:06:42;;;;;;;9.13;3.90;;;17.40;99.90;;;;;;5035388;28;20462;-83
2022/07/14 05:09:09;;;;;;;8.50;2.57;;;17.90;99.90;;;;;;5026321;28;20482;-83
2022/07/14 05:11:36;;;;;;;9.80;3.33;;;18.10;99.90;;;;;;5027715;28;20515;-81
2022/07/14 05:14:03;;;;;;;8.57;2.57;;;18.10;99.90;;;;;;5040747;28;20560;-82
2022/07/14 05:16:31;;;;;;;10.37;3.10;;;18.10;99.90;;;;;;5025004;28;20522;-81
2022/07/14 05:18:58;;;;;;;9.27;3.63;;;18.10;99.90;;;;;;5033111;28;20460;-81
2022/07/14 05:21:26;;;;;;;7.87;3.00;;;18.10;99.90;;;;;;5033353;28;20468;-80
2022/07/14 05:23:53;;;;;;;7.90;3.17;;;18.20;99.90;;;;;;5033014;28;20569;-81
2022/07/14 05:26:20;;;;;;;6.20;2.70;;;18.10;99.90;;;;;;5034825;28;20527;-80
2022/07/14 05:28:47;;;;;;;7.50;2.90;;;18.20;99.90;;;;;;5036949;28;20448;-80
2022/07/14 05:31:14;;;;;;;7.50;3.77;;;18.40;99.90;;;;;;5031151;28;20515;-83
2022/07/14 05:33:42;;;;;;;8.73;2.43;;;19.10;99.90;;;;;;5027985;28;20547;-81
2022/07/14 05:36:09;;;;;;;5.20;2.10;;;20.60;99.90;;;;;;5038118;28;20460;-82
2022/07/14 05:38:36;;;;;;;8.63;2.13;;;22.30;99.90;;;;;;5036426;28;20819;-83
2022/07/14 05:41:03;;;;;;;5.33;1.53;;;23.50;96.70;;;;;;5029642;28;20502;-82
2022/07/14 05:43:31;;;;;;;9.37;2.73;;;24.70;93.80;;;;;;5028663;28;20502;-81
2022/07/14 05:46:04;;;;;;;7.23;2.27;;;25.60;91.60;;;;;;5034084;28;20455;-82
2022/07/14 05:48:31;;;;;;;4.87;2.00;;;25.80;89.50;;;;;;5029058;28;20602;-82
2022/07/14 05:51:09;;;;;;;5.93;2.07;;;25.80;88.70;;;;;;5037853;28;20435;-82
2022/07/14 05:53:36;;;;;;;8.40;2.77;;;26.00;88.20;;;;;;5025997;28;20880;-80
2022/07/14 05:56:04;;;;;;;7.83;2.57;;;26.20;87.30;;;;;;5027951;28;20457;-80
2022/07/14 05:58:31;;;;;;;7.43;2.80;;;25.70;87.40;;;;;;5030205;28;20444;-79
2022/07/14 06:00:57;;;;;;;6.63;2.53;;;26.00;87.20;;;;;;5043576;28;20451;-79
2022/07/14 06:03:25;;;;;;;7.13;2.27;;;25.50;86.60;;;;;;5045257;28;20483;-82
2022/07/14 06:05:52;;;;;;;6.07;2.13;;;24.40;89.20;;;;;;5043055;28;20450;-80
2022/07/14 06:08:22;;;;;;;7.20;2.33;;;24.30;90.50;;;;;;5045244;28;20455;-81
2022/07/14 06:10:48;;;;;;;10.57;2.40;;;24.00;90.40;;;;;;5043738;28;20451;-82
2022/07/14 06:13:16;;;;;;;8.43;2.10;;;23.40;91.40;;;;;;5037257;28;20511;-82
2022/07/14 06:15:44;;;;;;;6.10;2.70;;;24.00;91.80;;;;;;5036848;28;20498;-82
2022/07/14 06:18:11;;;;;;;4.53;2.50;;;24.70;90.40;;;;;;5032248;28;20537;-82
2022/07/14 06:20:41;;;;;;;6.93;2.63;;;24.00;90.50;;;;;;5036243;28;20513;-80
2022/07/14 06:23:09;;;;;;;7.70;1.90;;;23.40;91.40;;;;;;5033876;28;20542;-81
2022/07/14 06:25:39;;;;;;;7.63;1.83;;;22.90;92.30;;;;;;5032660;28;20468;-83
2022/07/14 06:28:07;;;;;;;7.37;1.97;;;22.50;93.20;;;;;;5041716;28;20504;-82
2022/07/14 06:30:35;;;;;;;7.10;1.70;;;22.30;93.90;;;;;;5048344;22;20976;-74
2022/07/14 06:33:02;;;;;;;9.53;2.17;;;22.00;94.60;;;;;;5045430;28;20565;-73
2022/07/14 06:35:29;;;;;;;6.23;1.83;;;22.00;95.00;;;;;;5044248;28;20476;-73
2022/07/14 06:37:57;;;;;;;12.63;3.27;;;22.70;94.80;;;;;;5041237;28;20573;-73
2022/07/14 06:40:25;;;;;;;7.97;2.70;;;24.00;93.10;;;;;;5055648;28;20811;-73
2022/07/14 06:42:53;;;;;;;7.70;2.03;;;25.10;91.10;;;;;;5045589;28;20553;-74
2022/07/14 06:45:33;;;;;;;5.10;1.73;;;26.00;88.30;;;;;;5042441;28;20451;-75
2022/07/14 06:48:00;;;;;;;9.43;2.90;;;27.20;85.00;;;;;;5035100;28;20819;-74
2022/07/14 06:50:27;;;;;;;8.63;2.47;;;28.00;81.80;;;;;;5046367;28;20923;-74
2022/07/14 06:52:54;;;;;;;6.90;1.83;;;28.40;79.70;;;;;;5055203;28;20470;-74
2022/07/14 06:55:21;;;;;;;8.30;2.80;;;28.80;77.70;;;;;;5043138;28;20463;-74
2022/07/14 06:57:50;;;;;;;7.00;2.83;;;29.30;75.60;;;;;;5044382;28;20557;-73
2022/07/14 07:00:19;;;;;;;13.23;3.90;;;29.40;75.30;;;;;;5048027;28;20528;-73
2022/07/14 07:02:47;;;;;;;7.73;3.10;;;29.80;73.90;;;;;;5041869;28;20468;-75
2022/07/14 07:08:05;;;;;;;6.63;2.90;;;28.70;72.90;;;;;;5007582;28;20439;-74
2022/07/14 07:10:40;;;;;;;4.17;1.80;;;27.70;76.00;;;;;;5042568;28;20534;-73
2022/07/14 07:13:07;;;;;;;11.90;3.20;;;27.80;76.60;;;;;;5052638;28;20554;-73
2022/07/14 07:15:38;;;;;;;8.70;2.97;;;27.30;77.40;;;;;;5051620;28;20514;-76
2022/07/14 07:18:06;;;;;;;11.40;2.57;;;26.70;79.50;;;;;;5050048;28;20474;-71
2022/07/14 07:20:33;;;;;;;16.00;2.87;;;26.00;80.70;;;;;;5046864;28;20456;-73
2022/07/14 07:23:00;;;;;;;5.60;2.43;;;25.70;82.20;;;;;;5047270;28;20872;-72
2022/07/14 07:25:27;;;;;;;4.93;1.90;;;25.50;83.70;;;;;;5040461;28;20443;-72
2022/07/14 07:27:54;;;;;;;5.20;2.47;;;26.50;81.40;;;;;;5044793;28;20533;-71
2022/07/14 07:30:22;;;;;;;8.10;1.93;;;27.50;77.20;;;;;;5051979;28;20525;-72
2022/07/14 07:32:50;;;;;;;7.13;2.90;;;27.70;73.90;;;;;;5045502;28;20509;-72
2022/07/14 07:35:18;;;;;;;4.27;1.73;;;28.00;73.90;;;;;;5049337;28;20478;-72
2022/07/14 07:37:45;;;;;;;4.97;1.87;;;27.80;73.50;;;;;;5047816;28;21086;-69
2022/07/14 07:40:13;;;;;;;5.63;2.17;;;27.20;74.20;;;;;;5056006;28;20442;-72
2022/07/14 07:42:40;;;;;;;6.00;2.70;;;26.60;74.90;;;;;;5050126;28;20480;-72
2022/07/14 07:45:08;;;;;;;4.67;1.93;;;25.80;75.50;;;;;;5044650;28;20536;-73
2022/07/14 07:47:35;;;;;;;7.07;2.70;;;25.10;78.50;;;;;;5038639;28;20454;-71
2022/07/14 07:50:04;;;;;;;7.43;2.77;;;24.60;80.60;;;;;;5048305;28;20450;-72
2022/07/14 07:52:31;;;;;;;6.10;1.80;;;24.20;81.70;;;;;;5032479;28;20622;-72
2022/07/14 07:54:58;;;;;;;6.07;2.30;;;23.80;82.40;;;;;;5047894;28;20459;-72
2022/07/14 07:57:25;;;;;;;9.27;1.77;;;24.60;83.30;;;;;;5037698;28;20509;-71
2022/07/14 07:59:52;;;;;;;4.43;2.27;;;26.20;79.50;;;;;;5038947;28;20447;-72
2022/07/14 08:02:24;;;;;;;3.67;2.00;;;27.10;75.80;;;;;;5050152;28;20545;-72
2022/07/14 08:04:51;;;;;;;3.90;1.70;;;27.70;73.30;;;;;;5051498;28;20958;-72
2022/07/14 08:07:20;;;;;;;3.77;1.93;;;27.20;73.00;;;;;;5054143;28;20521;-71
2022/07/14 08:09:48;;;;;;;7.63;2.20;;;26.60;74.30;;;;;;5055729;28;20469;-70
2022/07/14 08:12:15;;;;;;;8.10;2.17;;;26.70;75.20;;;;;;5040786;28;21031;-72
2022/07/14 08:14:53;;;;;;;7.23;2.07;;;27.80;73.10;;;;;;5049318;28;20504;-70
2022/07/14 08:17:22;;;;;;;4.87;1.60;;;28.90;70.90;;;;;;5049856;28;20956;-70
2022/07/14 08:19:50;;;;;;;8.87;2.70;;;29.20;70.60;;;;;;5043561;28;20443;-71
2022/07/14 08:22:24;;;;;;;5.27;2.00;;;29.40;68.60;;;;;;5051333;28;20808;-71
2022/07/14 08:24:51;;;;;;;4.80;1.80;;;28.30;70.00;;;;;;5046544;28;20449;-70
2022/07/14 08:27:18;;;;;;;4.67;1.73;;;27.00;71.50;;;;;;5045377;28;20530;-70
2022/07/14 08:29:45;;;;;;;5.67;2.03;;;26.00;74.70;;;;;;5054317;28;21010;-71
2022/07/14 08:32:12;;;;;;;4.07;1.70;;;26.20;76.10;;;;;;5048187;28;20468;-70
2022/07/14 08:34:40;;;;;;;3.30;2.37;;;27.30;73.80;;;;;;5052565;28;20519;-70
2022/07/14 08:37:07;;;;;;;9.87;3.27;;;28.40;71.50;;;;;;5049222;28;20486;-70
2022/07/14 08:39:35;;;;;;;8.13;1.97;;;27.80;71.70;;;;;;5054645;28;20466;-70
2022/07/14 08:42:03;;;;;;;4.87;1.50;;;27.10;72.60;;;;;;5053606;28;20450;-70
2022/07/14 08:44:30;;;;;;;10.90;2.17;;;26.20;74.40;;;;;;5036807;28;20475;-71
2022/07/14 08:46:58;;;;;;;4.67;1.60;;;26.80;75.10;;;;;;5044187;28;20495;-71
2022/07/14 08:49:25;;;;;;;3.97;1.73;;;27.60;73.70;;;;;;5042324;28;20497;-71
2022/07/14 08:51:53;;;;;;;4.70;2.30;;;28.50;70.40;;;;;;5047301;28;20459;-70
2022/07/14 08:54:20;;;;;;;4.90;1.83;;;29.40;68.90;;;;;;5050164;28;20827;-69
2022/07/14 08:56:48;;;;;;;4.53;2.10;;;30.00;66.70;;;;;;5051304;28;20470;-70
2022/07/14 08:59:15;;;;;;;4.23;1.53;;;30.80;65.50;;;;;;5050821;28;20513;-70
2022/07/14 09:01:49;;;;;;;1.80;1.30;;;31.20;63.90;;;;;;5051181;28;20908;-69
2022/07/14 09:04:16;;;;;;;7.97;1.50;;;30.70;62.80;;;;;;5054217;28;20465;-69
2022/07/14 09:06:48;;;;;;;4.83;1.80;;;30.90;63.20;;;;;;5054743;28;20470;-71
2022/07/14 09:09:18;;;;;;;4.50;1.77;;;31.10;63.40;;;;;;5055230;28;20489;-69
2022/07/14 09:11:58;;;;;;;4.47;1.93;;;30.00;63.60;;;;;;5050810;28;20439;-71
2022/07/14 09:14:27;;;;;;;4.80;2.10;;;28.40;65.10;;;;;;5054490;28;20476;-70
2022/07/14 09:17:16;;;;;;;6.93;1.90;;;27.20;68.50;;;;;;5044896;28;20528;-70
2022/07/14 09:20:08;;;;;;;4.47;1.60;;;26.30;71.10;;;;;;5046682;28;20947;-71
2022/07/14 09:22:38;;;;;;;6.83;1.83;;;27.20;69.80;;;;;;5044716;28;20482;-69
2022/07/14 09:25:08;;;;;;;9.87;1.70;;;28.20;68.50;;;;;;5053657;28;20916;-71
2022/07/14 09:27:36;;;;;;;3.20;1.67;;;28.40;67.10;;;;;;5047747;28;20492;-71
2022/07/14 09:30:04;;;;;;;4.53;2.13;;;28.90;67.20;;;;;;5040428;28;20445;-71
2022/07/14 09:32:50;;;;;;;4.80;2.23;;;28.70;66.10;;;;;;5042102;28;20542;-69
2022/07/14 09:35:20;;;;;;;4.17;1.70;;;29.60;64.60;;;;;;5048526;28;20479;-71
2022/07/14 09:37:47;;;;;;;3.53;1.77;;;30.20;62.50;;;;;;5055049;28;20787;-73
2022/07/14 09:40:22;;;;;;;7.93;1.47;;;30.50;61.30;;;;;;5044680;28;20480;-69
2022/07/14 09:42:57;;;;;;;4.30;1.30;;;30.30;60.70;;;;;;5048878;28;20473;-69
2022/07/14 09:45:27;;;;;;;3.00;1.00;;;30.50;60.50;;;;;;5035123;28;20492;-71
2022/07/14 09:47:56;;;;;;;5.03;1.63;;;30.20;59.50;;;;;;5035955;28;20451;-70
2022/07/14 09:50:35;;;;;;;4.60;1.87;;;29.40;61.10;;;;;;5036193;28;21003;-70
2022/07/14 09:53:14;;;;;;;3.23;1.60;;;28.30;63.00;;;;;;5047358;28;20470;-70
2022/07/14 09:55:44;;;;;;;3.10;2.13;;;27.40;66.00;;;;;;5043096;28;20482;-70
2022/07/14 09:58:13;;;;;;;4.13;1.67;;;26.60;68.50;;;;;;5039917;28;20860;-70
2022/07/14 10:00:42;;;;;;;3.57;0.97;;;26.30;70.20;;;;;;5043350;28;20442;-72
2022/07/14 10:03:10;;;;;;;4.17;1.10;;;26.30;70.00;;;;;;5045993;28;20459;-71
2022/07/14 10:05:38;;;;;;;2.43;1.00;;;26.50;69.60;;;;;;5045129;28;20529;-69
2022/07/14 10:08:06;;;;;;;3.23;1.53;;;26.70;69.50;;;;;;5046440;28;21016;-70
2022/07/14 10:10:35;;;;;;;4.50;2.60;;;26.60;69.70;;;;;;5039397;28;20453;-70
2022/07/14 10:13:05;;;;;;;2.50;1.40;;;26.50;70.00;;;;;;5041011;28;20466;-71
2022/07/14 10:15:33;;;;;;;2.77;1.37;;;26.60;71.40;;;;;;5047108;28;20458;-71
2022/07/14 10:18:03;;;;;;;3.30;1.50;;;26.50;72.40;;;;;;5046638;28;20924;-70
2022/07/14 10:20:31;;;;;;;5.50;1.60;;;26.80;70.50;;;;;;5051311;28;20453;-70
2022/07/14 10:23:01;;;;;;;4.83;1.43;;;26.90;69.90;;;;;;5044661;28;20471;-72
2022/07/14 10:25:29;;;;;;;2.17;1.10;;;27.10;68.60;;;;;;5041991;28;20516;-71
2022/07/14 10:27:56;;;;;;;2.70;1.53;;;27.10;68.80;;;;;;5045518;28;20443;-70
2022/07/14 10:30:35;;;;;;;4.20;1.40;;;27.60;68.10;;;;;;5038984;28;20494;-70
2022/07/14 10:33:06;;;;;;;4.50;1.30;;;27.70;68.80;;;;;;5045500;28;20501;-70
2022/07/14 10:35:55;;;;;;;9.53;1.60;;;27.70;68.90;;;;;;5051273;28;20474;-71
2022/07/14 10:38:55;;;;;;;4.87;1.37;;;27.50;67.90;;;;;;5039305;28;20570;-71
2022/07/14 10:41:36;;;;;;;15.83;1.97;;;27.50;65.70;;;;;;5034080;28;20861;-71
2022/07/14 10:44:11;;;;;;;6.60;1.53;;;27.60;66.40;;;;;;5042208;28;20553;-70
2022/07/14 10:46:42;;;;;;;3.10;1.37;;;27.60;65.40;;;;;;5033679;28;20446;-71
2022/07/14 10:49:12;;;;;;;2.17;1.13;;;27.70;66.00;;;;;;5040041;28;20500;-71
2022/07/14 10:51:47;;;;;;;3.50;1.80;;;27.50;66.80;;;;;;5033851;28;20526;-71
2022/07/14 10:54:15;;;;;;;6.93;1.20;;;27.30;66.50;;;;;;5044479;28;20476;-70
2022/07/14 10:56:45;;;;;;;3.90;1.10;;;27.10;65.80;;;;;;5034200;28;20532;-70
2022/07/14 10:59:35;;;;;;;2.07;1.23;;;27.20;66.80;;;;;;5046927;28;20581;-70
2022/07/14 11:02:34;;;;;;;4.63;1.63;;;26.90;67.70;;;;;;5051389;28;20508;-71
2022/07/14 11:05:21;;;;;;;4.27;1.40;;;26.70;67.60;;;;;;5044239;28;20431;-70
2022/07/14 11:07:51;;;;;;;3.10;1.47;;;27.00;67.40;;;;;;5038980;28;20864;-69
2022/07/14 11:11:10;;;;;;;3.80;1.47;;;26.70;67.60;;;;;;5043797;28;20823;-70
2022/07/14 11:14:04;;;;;;;3.80;1.30;;;26.60;68.60;;;;;;5043178;28;20523;-71
2022/07/14 11:17:00;;;;;;;5.30;1.87;;;26.30;69.60;;;;;;5044652;28;20477;-69
2022/07/14 11:19:34;;;;;;;6.93;1.53;;;26.00;70.90;;;;;;5044556;28;20553;-70
2022/07/14 11:22:18;;;;;;;3.47;1.50;;;25.50;71.00;;;;;;5045836;28;20818;-69
2022/07/14 11:24:47;;;;;;;4.37;1.30;;;25.30;72.30;;;;;;5047981;28;20456;-70
2022/07/14 11:27:32;;;;;;;2.80;1.20;;;25.20;72.60;;;;;;5038662;28;21052;-70
2022/07/14 11:30:22;;;;;;;5.47;1.23;;;25.00;70.10;;;;;;5040886;28;20447;-70
2022/07/14 11:32:59;;;;;;;1.83;1.10;;;25.00;71.10;;;;;;5051691;28;20983;-71
2022/07/14 11:36:18;;;;;;;3.70;1.30;;;25.00;71.00;;;;;;5049613;28;20453;-71
2022/07/14 11:38:46;;;;;;;6.63;1.50;;;25.00;71.70;;;;;;5044670;28;20462;-69
2022/07/14 11:41:14;;;;;;;7.03;2.33;;;25.10;71.80;;;;;;5053608;28;20454;-69
2022/07/14 11:43:50;;;;;;;4.20;1.60;;;24.80;71.70;;;;;;5043637;28;20458;-69
2022/07/14 11:46:20;;;;;;;2.80;1.10;;;24.40;72.00;;;;;;5042038;28;20549;-71
2022/07/14 11:48:50;;;;;;;4.73;1.07;;;24.10;71.60;;;;;;5043638;28;20485;-71
2022/07/14 11:51:29;;;;;;;4.97;1.67;;;24.00;72.10;;;;;;5052976;28;20442;-70
2022/07/14 11:53:58;;;;;;;3.30;1.60;;;24.00;73.50;;;;;;5049380;28;20474;-70
2022/07/14 11:56:28;;;;;;;3.70;1.50;;;23.90;73.70;;;;;;5045083;28;20442;-70
2022/07/14 11:59:03;;;;;;;6.63;1.13;;;24.00;73.80;;;;;;5060028;28;20556;-70
2022/07/14 12:01:38;;;;;;;5.10;1.23;;;24.30;73.90;;;;;;5054171;28;20453;-73
2022/07/14 12:04:11;;;;;;;4.40;1.30;;;24.40;74.00;;;;;;5057040;28;21081;-71
2022/07/14 12:06:41;;;;;;;2.10;0.90;;;24.50;73.40;;;;;;5053805;28;20445;-70
2022/07/14 12:09:09;;;;;;;4.97;1.30;;;24.40;72.60;;;;;;5052554;28;20461;-70
2022/07/14 12:11:36;;;;;;;3.33;1.23;;;24.40;73.60;;;;;;5053866;28;20481;-70
2022/07/14 12:14:06;;;;;;;3.43;1.27;;;24.50;73.30;;;;;;5055208;28;20466;-69
2022/07/14 12:16:43;;;;;;;3.23;1.20;;;24.70;72.70;;;;;;5049899;28;20449;-70
2022/07/14 12:19:11;;;;;;;5.53;1.40;;;24.80;72.70;;;;;;5049374;28;20523;-71
2022/07/14 12:21:41;;;;;;;1.60;0.77;;;24.80;72.20;;;;;;5047084;28;21174;-69
2022/07/14 12:24:11;;;;;;;2.27;1.10;;;24.80;71.90;;;;;;5042650;28;20465;-70
2022/07/14 12:26:38;;;;;;;6.23;1.73;;;24.80;71.70;;;;;;5053524;28;20804;-70
2022/07/14 12:29:06;;;;;;;4.20;1.70;;;24.80;72.70;;;;;;5043060;28;20529;-69
2022/07/14 12:31:39;;;;;;;3.67;0.80;;;24.60;71.80;;;;;;5041301;28;20975;-70
2022/07/14 12:34:06;;;;;;;2.00;1.10;;;24.40;72.90;;;;;;5060133;28;20519;-69
2022/07/14 12:36:33;;;;;;;1.63;0.90;;;24.30;73.90;;;;;;5047634;28;20532;-70
2022/07/14 12:39:05;;;;;;;4.33;1.27;;;24.10;74.10;;;;;;5064551;28;20557;-71
2022/07/14 12:41:32;;;;;;;3.13;1.03;;;24.10;75.00;;;;;;5046845;28;20538;-70
2022/07/14 12:44:04;;;;;;;4.90;1.47;;;24.00;75.60;;;;;;5046913;28;20576;-70
2022/07/14 12:46:31;;;;;;;6.10;1.53;;;24.00;75.80;;;;;;5050206;28;20836;-70
2022/07/14 12:49:00;;;;;;;2.80;0.80;;;24.20;75.60;;;;;;5048975;28;21067;-71
2022/07/14 12:51:30;;;;;;;2.47;0.90;;;24.40;76.00;;;;;;5044924;28;20504;-70
2022/07/14 12:54:05;;;;;;;4.10;1.30;;;24.20;76.10;;;;;;5054855;28;20465;-70
2022/07/14 12:56:34;;;;;;;3.23;0.97;;;23.80;77.50;;;;;;5045963;28;20480;-69
2022/07/14 12:59:04;;;;;;;2.23;0.70;;;23.50;79.00;;;;;;5043541;28;20566;-70
2022/07/14 13:01:31;;;;;;;3.80;1.10;;;23.50;79.10;;;;;;5047182;28;20547;-70
2022/07/14 13:04:01;;;;;;;2.03;0.70;;;23.50;79.20;;;;;;5045668;28;20474;-69
2022/07/14 13:06:29;;;;;;;6.77;0.90;;;23.50;77.70;;;;;;5058090;28;20517;-70
2022/07/14 13:08:56;;;;;;;1.87;0.90;;;23.50;78.10;;;;;;5055536;28;20492;-70
2022/07/14 13:11:30;;;;;;;3.67;1.23;;;23.60;78.40;;;;;;5056490;28;21017;-69